Unstoppable — SH827 — position and weather

sailwx.info

Track history (hours):
 
Tides and Currents Weather Stations Pressure Air Temp Water Temp Dewpoint Dewpoint Depression Visibility Wind Speed Wind Dir Waves Ship Positions

Unstoppable

Last reported at 2017-Nov-12 04:23 UTC. Time now 2017-Nov-19 08:41 UTC.
Position S 27°13' E 153°06'.

Length 11 m.

Type: Sailing vessel. MMSI: 503041260.

Date/timePositionNaut miles runAvg speedWind from/ knotsBaromVisibWave heightAir tempDewpointWater temp
2017-Nov-12 04:23S 27°13' E 153°06'0 0.0
2017-Nov-12 03:47S 27°13' E 153°06'0 0.0
2017-Nov-12 03:28S 27°13' E 153°06'0 0.0
2017-Nov-12 02:53S 27°13' E 153°06'0 0.0
2017-Nov-12 02:16S 27°13' E 153°06'1 3.1
2017-Nov-12 01:52S 27°11' E 153°06'2 4.7
2017-Nov-12 01:28S 27°10' E 153°04'3 5.9
2017-Nov-12 00:57S 27°08' E 153°06'1 2.4
2017-Nov-12 00:30S 27°09' E 153°06'4 5.1
2017-Nov-11 23:46S 27°12' E 153°06'  
2017-Nov-04 06:06S 27°12' E 153°06'0 0.0
2017-Nov-04 06:00S 27°12' E 153°06'2 3.4
2017-Nov-04 05:30S 27°10' E 153°07'2 5.1
2017-Nov-04 05:00S 27°08' E 153°09'3 5.2
2017-Nov-04 04:30S 27°06' E 153°10'1 0.4
2017-Nov-04 02:52S 27°05' E 153°09'1 2.5
2017-Nov-04 02:30S 27°06' E 153°10'1 2.4
2017-Nov-04 02:00S 27°07' E 153°09'2 4.0
2017-Nov-04 01:30S 27°07' E 153°06'1 2.8
2017-Nov-04 01:00S 27°08' E 153°07'3 4.6
2017-Nov-04 00:27S 27°11' E 153°06'1 2.2
2017-Nov-03 23:59S 27°12' E 153°06'  
Track history (hours):
 
Tides and Currents Weather Stations Pressure Air Temp Water Temp Dewpoint Dewpoint Depression Visibility Wind Speed Wind Dir Waves Ship Positions

Unstoppable

Last reported at 2017-Nov-12 04:23 UTC. Time now 2017-Nov-19 08:41 UTC.
Position S 27°13' E 153°06'.

Length 11 m.

Type: Sailing vessel. MMSI: 503041260.

Date/timePositionNaut miles runAvg speedWind from/ knotsBaromVisibWave heightAir tempDewpointWater temp
2017-Nov-12 04:23S 27°13' E 153°06'0 0.0
2017-Nov-12 03:47S 27°13' E 153°06'0 0.0
2017-Nov-12 03:28S 27°13' E 153°06'0 0.0
2017-Nov-12 02:53S 27°13' E 153°06'0 0.0
2017-Nov-12 02:16S 27°13' E 153°06'1 3.1
2017-Nov-12 01:52S 27°11' E 153°06'2 4.7
2017-Nov-12 01:28S 27°10' E 153°04'3 5.9
2017-Nov-12 00:57S 27°08' E 153°06'1 2.4
2017-Nov-12 00:30S 27°09' E 153°06'4 5.1
2017-Nov-11 23:46S 27°12' E 153°06'  
2017-Nov-04 06:06S 27°12' E 153°06'0 0.0
2017-Nov-04 06:00S 27°12' E 153°06'2 3.4
2017-Nov-04 05:30S 27°10' E 153°07'2 5.1
2017-Nov-04 05:00S 27°08' E 153°09'3 5.2
2017-Nov-04 04:30S 27°06' E 153°10'1 0.4
2017-Nov-04 02:52S 27°05' E 153°09'1 2.5
2017-Nov-04 02:30S 27°06' E 153°10'1 2.4
2017-Nov-04 02:00S 27°07' E 153°09'2 4.0
2017-Nov-04 01:30S 27°07' E 153°06'1 2.8
2017-Nov-04 01:00S 27°08' E 153°07'3 4.6
2017-Nov-04 00:27S 27°11' E 153°06'1 2.2
2017-Nov-03 23:59S 27°12' E 153°06'  

Dump ship's entire track history